• Join FlightAware (Why Join?)
  • Login
  • US Flag 
09:13AM EDT


 

Airport Tracker/Info


-or-


 

Live Flight TrackerFlight Track Log ✈ TAM3241 ✈ 30-Sep-2013 ✈ SBUL / UDI - SBSP / CGH

Flight Track Log - Related Links

Times and Time Zones

All times are in EDT time to prevent confusion due to time zone crossing. See the TAM3241 flight status page for this flight to view local times or setup timezone preferences in your user account.

Time Position Orientation Groundspeed Altitude Reporting Facility
EDT Latitude Longitude Course Direction KTS MPH feet Rate Location/Type
02:44PM -18.8620 -48.1440 177° South 249 287 7,300  Level FlightAware
02:45PM -18.8790 -48.1440 180° South 249 287 8,100 2,820 Climbing FlightAware
02:45PM -18.9050 -48.1510 194° South 235 270 9,200 2,580 Climbing FlightAware
02:45PM -18.9240 -48.1640 213° Southwest 244 281 10,000 1,560 Climbing FlightAware
02:46PM -18.9610 -48.1920 216° Southwest 291 335 10,700 1,800 Climbing FlightAware
02:47PM -19.0020 -48.2240 216° Southwest 304 350 12,200 2,580 Climbing FlightAware
02:47PM -19.0400 -48.2580 220° Southwest 308 354 13,800 2,580 Climbing FlightAware
02:48PM -19.0690 -48.2910 227° Southwest 311 358 15,100 2,520 Climbing FlightAware
02:48PM -19.1060 -48.3350 228° Southwest 321 369 16,700 2,580 Climbing FlightAware
02:49PM -19.1240 -48.3600 233° Southwest 314 361 17,600 3,480 Climbing FlightAware
02:49PM -19.1320 -48.3800 247° West 297 342 18,700 2,760 Climbing FlightAware
02:49PM -19.1500 -48.4280 248° West 304 350 19,900 2,220 Climbing FlightAware
02:50PM -19.1650 -48.4530 238° Southwest 302 348 20,800 1,620 Climbing FlightAware
02:50PM -19.2060 -48.4920 222° Southwest 322 371 21,500 1,140 Climbing FlightAware
02:51PM -19.2210 -48.5030 215° Southwest 330 380 21,800 1,680 Climbing FlightAware
02:51PM -19.2450 -48.5100 195° South 339 390 22,300 1,500 Climbing FlightAware
02:51PM -19.2940 -48.5230 194° South 354 407 23,000 1,320 Climbing FlightAware
02:52PM -19.3700 -48.5230 180° South 376 433 24,000 1,500 Climbing FlightAware
02:53PM -19.4250 -48.5130 170° South 384 442 24,900 1,080 Climbing FlightAware
02:53PM -19.4930 -48.5030 172° South 405 466 25,300 960 Climbing FlightAware
02:54PM -19.5610 -48.4930 172° South 413 475 26,100 1,500 Climbing FlightAware
02:55PM -19.6430 -48.4910 179° South 411 473 27,300 1,500 Climbing FlightAware
02:55PM -19.6780 -48.4980 191° South 413 475 27,700 1,200 Climbing FlightAware
02:55PM -19.7130 -48.5160 206° Southwest 411 473 28,100 1,500 Climbing FlightAware
02:56PM -19.7740 -48.5520 209° Southwest 414 476 29,100 1,740 Climbing FlightAware
02:56PM -19.8190 -48.5830 213° Southwest 408 470 30,000 1,680 Climbing FlightAware
02:57PM -19.8700 -48.6160 211° Southwest 412 474 30,800 2,040 Climbing FlightAware
02:58PM -19.9320 -48.6560 211° Southwest 393 452 32,400 2,160 Climbing FlightAware
02:58PM -19.9900 -48.6910 210° Southwest 387 445 33,600 1,500 Climbing FlightAware
02:59PM -20.0340 -48.7120 204° Southwest 400 460 34,000 360 Climbing FlightAware
02:59PM -20.1030 -48.7310 194° South 417 480 34,000  Level FlightAware
02:59PM -20.1270 -48.7370 193° South 425 489 34,000  Level FlightAware
03:00PM -20.1820 -48.7340 177° South 443 510 34,000  Level FlightAware
03:00PM -20.2510 -48.7140 165° South 444 511 34,000  Level FlightAware
03:01PM -20.3200 -48.6960 166° South 441 507 34,000  Level FlightAware
03:02PM -20.3930 -48.6770 166° South 438 504 34,000  Level FlightAware
03:02PM -20.4610 -48.6570 165° South 435 501 34,000  Level FlightAware
03:03PM -20.5180 -48.6380 163° South 438 504 34,000  Level FlightAware
03:03PM -20.5920 -48.6090 160° South 440 506 34,000  Level FlightAware
03:04PM -20.6630 -48.5800 159° South 442 509 34,000  Level FlightAware
03:05PM -20.7330 -48.5530 160° South 443 510 34,000  Level FlightAware
03:05PM -20.7950 -48.5300 161° South 448 516 34,000  Level FlightAware
03:06PM -20.8700 -48.5010 160° South 451 519 34,000  Level FlightAware
03:06PM -20.9280 -48.4790 160° South 454 522 34,000 -600 Level FlightAware
03:07PM -21.0010 -48.4510 160° South 454 522 33,400 -1,020 Descending FlightAware
03:07PM -21.0730 -48.4230 160° South 451 519 32,800 -1,020 Descending FlightAware
03:08PM -21.1450 -48.3900 157° South 455 524 32,200 -1,080 Descending FlightAware
03:09PM -21.2080 -48.3600 156° South 461 531 31,600 -1,080 Descending FlightAware
03:09PM -21.2770 -48.3280 157° South 460 529 31,000 -1,020 Descending FlightAware
03:10PM -21.3460 -48.2970 157° South 458 527 30,400 -900 Descending FlightAware
03:10PM -21.4140 -48.2650 156° South 449 517 30,000 -360 Descending FlightAware
03:11PM -21.4830 -48.2330 157° South 444 511 30,000  Level FlightAware
03:12PM -21.5450 -48.2050 157° South 441 507 30,000  Level FlightAware
03:12PM -21.6120 -48.1740 157° South 446 513 30,000  Level FlightAware
03:13PM -21.6810 -48.1420 157° South 460 529 30,000  Level FlightAware
03:13PM -21.7520 -48.1090 157° South 461 531 30,000  Level FlightAware
03:14PM -21.8150 -48.0800 157° South 460 529 30,000  Level FlightAware
03:14PM -21.8850 -48.0480 157° South 453 521 30,000  Level FlightAware
03:15PM -21.9540 -48.0160 157° South 449 517 30,000  Level FlightAware
03:16PM -22.0150 -47.9870 156° South 451 519 30,000  Level FlightAware
03:16PM -22.0850 -47.9550 157° South 451 519 30,000 -540 Level FlightAware
03:17PM -22.1550 -47.9220 156° South 454 522 29,400 -1,020 Descending FlightAware
03:17PM -22.2270 -47.8890 157° South 447 514 28,800 -960 Descending FlightAware
03:18PM -22.2880 -47.8610 157° South 444 511 28,300 -1,020 Descending FlightAware
03:19PM -22.3540 -47.8300 157° South 443 510 27,700 -1,140 Descending FlightAware
03:19PM -22.4200 -47.7990 157° South 441 507 27,000 -1,560 Descending FlightAware
03:20PM -22.4790 -47.7710 156° South 435 501 26,000 -1,980 Descending FlightAware
03:20PM -22.5530 -47.7370 157° South 426 490 24,700 -1,860 Descending FlightAware
03:21PM -22.6090 -47.7110 157° South 419 482 23,800 -1,800 Descending FlightAware
03:22PM -22.6760 -47.6770 155° Southeast 417 480 22,600 -1,920 Descending FlightAware
03:22PM -22.7280 -47.6310 141° Southeast 418 481 21,500 -1,860 Descending FlightAware
03:23PM -22.7760 -47.5860 139° Southeast 406 467 20,500 -1,860 Descending FlightAware
03:23PM -22.8190 -47.5450 139° Southeast 409 471 19,500 -2,280 Descending FlightAware
03:24PM -22.8770 -47.4920 140° Southeast 406 467 17,900 -2,340 Descending FlightAware
03:24PM -22.9270 -47.4450 139° Southeast 391 450 16,600 -1,980 Descending FlightAware
03:25PM -22.9750 -47.4010 140° Southeast 387 445 15,600 -1,200 Descending FlightAware
03:26PM -23.0210 -47.3580 139° Southeast 343 395 15,200 -1,200 Descending FlightAware
03:26PM -23.0630 -47.3180 139° Southeast 338 389 14,200 -1,740 Descending FlightAware
03:27PM -23.0940 -47.2900 140° Southeast 335 386 13,300 -1,800 Descending FlightAware
03:27PM -23.1320 -47.2560 141° Southeast 335 386 12,400 -1,860 Descending FlightAware
03:27PM -23.1610 -47.2440 159° South 318 366 11,900 -1,500 Descending FlightAware
03:28PM -23.2110 -47.2370 173° South 305 351 11,100 -1,260 Descending FlightAware
03:29PM -23.2570 -47.2320 174° South 298 343 10,500 -1,020 Descending FlightAware
03:29PM -23.3040 -47.2270 174° South 282 325 10,000 -480 Descending FlightAware
03:30PM -23.3420 -47.2230 174° South 280 322 10,000  Level FlightAware
03:30PM -23.3620 -47.2210 175° South 280 322 10,000 -300 Level FlightAware
03:30PM -23.3710 -47.2170 158° South 278 320 9,900 -540 Descending FlightAware
03:30PM -23.3760 -47.2150 160° South 279 321 9,900  Level FlightAware
03:30PM -23.3820 -47.2100 143° Southeast 278 320 9,900 -420 Level FlightAware
03:30PM -23.3900 -47.1990 128° Southeast 277 319 9,800 -600 Descending FlightAware
03:31PM -23.3960 -47.1840 114° Southeast 273 314 9,700 -540 Descending FlightAware
03:31PM -23.4050 -47.1560 109° East 269 310 9,500 -420 Descending FlightAware
03:31PM -23.4150 -47.1280 111° Southeast 268 308 9,400 -360 Descending FlightAware
03:32PM -23.4200 -47.1120 109° East 265 305 9,300 -540 Descending FlightAware
03:32PM -23.4310 -47.0820 112° Southeast 264 304 9,100 -480 Descending FlightAware
03:32PM -23.4380 -47.0610 110° East 262 302 9,000 -180 Descending FlightAware
03:33PM -23.4480 -47.0340 112° Southeast 261 300 9,000  Level FlightAware
03:33PM -23.4550 -47.0130 110° East 260 299 9,000  Level FlightAware
03:33PM -23.4640 -46.9890 112° Southeast 260 299 9,000  Level FlightAware
03:33PM -23.4690 -46.9740 110° East 260 299 9,000  Level FlightAware
03:34PM -23.4770 -46.9500 110° East 260 299 9,000  Level FlightAware
03:34PM -23.4880 -46.9230 114° Southeast 263 303 9,000  Level FlightAware
03:34PM -23.4950 -46.9150 134° Southeast 263 303 9,000  Level FlightAware
03:35PM -23.5120 -46.8990 139° Southeast 260 299 9,000  Level FlightAware
03:35PM -23.5340 -46.8780 139° Southeast 259 298 9,000  Level FlightAware
03:35PM -23.5520 -46.8600 137° Southeast 253 291 9,000  Level FlightAware
03:36PM -23.5700 -46.8440 141° Southeast 252 290 9,000  Level FlightAware
03:36PM -23.5830 -46.8300 135° Southeast 251 289 9,000  Level FlightAware
03:36PM -23.6000 -46.8140 139° Southeast 250 288 9,000  Level FlightAware
03:36PM -23.6110 -46.8040 140° Southeast 250 288 9,000  Level FlightAware
03:37PM -23.6320 -46.7830 138° Southeast 247 284 9,000 -300 Level FlightAware
03:37PM -23.6480 -46.7670 138° Southeast 241 277 8,800 -900 Descending FlightAware
03:37PM -23.6600 -46.7550 138° Southeast 237 273 8,500 -1,200 Descending FlightAware
03:38PM -23.6730 -46.7420 138° Southeast 239 275 8,200 -900 Descending FlightAware
03:38PM -23.6880 -46.7270 138° Southeast 239 275 8,000 -360 Descending FlightAware
03:38PM -23.7030 -46.7120 138° Southeast 233 268 8,000  Level FlightAware
03:39PM -23.7240 -46.6910 138° Southeast 225 259 8,000  Level FlightAware
03:39PM -23.7400 -46.6760 139° Southeast 222 255 8,000 -240 Level FlightAware
03:39PM -23.7480 -46.6680 138° Southeast 219 252 7,900 -900 Descending FlightAware
03:40PM -23.7640 -46.6520 138° Southeast 218 251 7,500 -1,080 Descending FlightAware
03:40PM -23.7790 -46.6380 140° Southeast 214 246 7,200 -780 Descending FlightAware
03:40PM -23.7880 -46.6300 141° Southeast 214 246 7,100 -360 Descending FlightAware
03:41PM -23.8060 -46.6140 141° Southeast 218 251 7,000 -660 Descending FlightAware
03:41PM -23.8320 -46.5880 138° Southeast 210 242 6,500 -900 Descending FlightAware
03:41PM -23.8460 -46.5730 136° Southeast 214 246 6,200 -1,200 Descending FlightAware
03:42PM -23.8510 -46.5610 114° Southeast 219 252 5,900 -1,200 Descending FlightAware
03:42PM -23.8510 -46.5570 90° East 221 254 5,900 -960 Level FlightAware
03:42PM -23.8420 -46.5360 65° Northeast 208 239 5,500 -1,200 Descending FlightAware
03:42PM -23.8340 -46.5320 25° Northeast 198 228 5,300 -900 Descending FlightAware
03:42PM -23.8280 -46.5300 17° North 190 219 5,200 -600 Descending FlightAware
03:43PM -23.8100 -46.5330 351° North 185 213 5,000 -420 Descending FlightAware
03:43PM -23.8010 -46.5370 338° Northwest 183 211 5,000  Level FlightAware
03:43PM -23.7870 -46.5460 330° Northwest 176 203 5,000  Level FlightAware
03:43PM -23.7760 -46.5540 326° Northwest 173 199 5,000  Level FlightAware
03:44PM -23.7660 -46.5600 331° Northwest 170 196 5,000  Level FlightAware
03:44PM -23.7490 -46.5720 327° Northwest 165 190 5,000 -180 Level FlightAware
03:44PM -23.7360 -46.5810 328° Northwest 143 165 4,900 -420 Descending FlightAware
03:45PM -23.7230 -46.5900 328° Northwest 134 154 4,700 -600 Descending FlightAware
03:45PM -23.7160 -46.5950 327° Northwest 128 147 4,500 -840 Descending FlightAware
03:46PM -23.7040 -46.6030 329° Northwest 125 144 4,200 -720 Descending FlightAware
03:46PM -23.6950 -46.6100 325° Northwest 128 147 4,000 -600 Descending FlightAware
03:46PM -23.6840 -46.6170 330° Northwest 125 144 3,800 -660 Descending FlightAware
03:47PM -23.6710 -46.6260 328° Northwest 126 145 3,500 -660 Descending FlightAware
03:47PM -23.6650 -46.6300 329° Northwest 125 144 3,400 -600 Descending FlightAware
03:47PM -23.6580 -46.6350 327° Northwest 128 147 3,200 -660 Descending FlightAware
03:47PM -23.6480 -46.6420 327° Northwest 132 152 3,000 -780 Descending FlightAware
03:48PM -23.6380 -46.6490 327° Northwest 134 154 2,700 -780 Descending FlightAware
03:48PM -23.6260 -46.6570 329° Northwest 136 157 -5,640 Descending FlightAware
03:49PM -23.6220 -46.6600 326° Northwest 136 157  Level FlightAware
03:49PM -23.6230 -46.6600 180° South 136 157  Level FlightAware
03:50PM -23.6140 -46.6470 53° Northeast 136 157  Level FlightAware
03:50PM -23.6240 -46.6600 230° Southwest 136 157  Level FlightAware
03:51PM -23.6240 -46.6590 90° East 136 157  Level FlightAware
03:51PM -23.6260 -46.6580 155° Southeast 136 157  Level FlightAware
03:52PM -23.6270 -46.6580 180° South 136 157  Level FlightAware
03:52PM -23.6270 -46.6570 90° East 136 157  Level FlightAware
03:52PM -23.6190 -46.6450 54° Northeast 136 157  Level FlightAware
03:53PM -23.6280 -46.6580 233° Southwest 136 157  Level FlightAware
03:53PM -23.6260 -46.6430 82° East 136 157  Level FlightAware
03:56PM -23.6267 -46.6554 267° West  Level Estimated